Anchorage/Merrill Field, Alaska
Current Conditions -  °F | °C
As of 7:53 PM on Friday 24 Oct 2014 (Local Time) from PAMR Reporting Station
Overcast Overcast  
Wind Chill: 35°   Ceiling: 5500
Heat Index: 35°   Visibility: 9mi
Dew Point: 24°   Wind: 0mph
Humidity: 64%   Direction: NA
Pressure: 29.88"   Gusts: NA
Location:  61.21°N, 149.85°W
Report Text: PAMR 250353Z 00000KT 9SM OVC055 02/M04 A2988 RMK AO2 SLP120 T00171044
Loading
Personal Weather Stations






























Interactive Weather Map New forecast layout! Learn more

10-Day Weather Forecast

Advertisements
Track Severe Weather on mobile